createdAt,value
2022-09-12T00:00:44.647Z,100.00
2022-09-12T00:03:11.292Z,100.00
2022-09-12T00:05:41.577Z,100.00
2022-09-12T00:08:08.342Z,100.00
2022-09-12T00:10:41.274Z,100.00
2022-09-12T00:13:09.652Z,100.00
2022-09-12T00:15:41.075Z,100.00
2022-09-12T00:18:10.147Z,100.00
2022-09-12T00:20:42.278Z,100.00
2022-09-12T00:23:08.801Z,100.00
2022-09-12T00:25:35.369Z,100.00
2022-09-12T00:28:01.880Z,100.00
2022-09-12T00:30:28.408Z,100.00
2022-09-12T00:32:55.104Z,100.00
2022-09-12T00:35:21.682Z,100.00
2022-09-12T00:37:48.105Z,100.00
2022-09-12T00:40:15.115Z,100.00
2022-09-12T00:42:41.613Z,100.00
2022-09-12T00:45:22.026Z,100.00
2022-09-12T00:47:49.214Z,100.00
2022-09-12T00:50:16.684Z,100.00
2022-09-12T00:52:52.198Z,100.00
2022-09-12T00:55:28.316Z,100.00
2022-09-12T00:58:03.694Z,100.00
2022-09-12T01:00:30.532Z,100.00
2022-09-12T01:03:04.290Z,100.00
2022-09-12T01:05:33.974Z,100.00
2022-09-12T01:08:05.183Z,100.00
2022-09-12T01:10:35.561Z,100.00
2022-09-12T01:13:05.954Z,100.00
2022-09-12T01:15:33.310Z,100.00
2022-09-12T01:18:31.055Z,100.00
2022-09-12T01:21:05.962Z,100.00
2022-09-12T01:24:10.745Z,100.00
2022-09-12T01:26:55.961Z,100.00
2022-09-12T01:29:49.695Z,100.00
2022-09-12T01:32:38.554Z,100.00
2022-09-12T01:35:24.473Z,100.00
2022-09-12T01:38:08.906Z,100.00
2022-09-12T01:41:31.129Z,100.00
2022-09-12T01:44:22.779Z,100.00
2022-09-12T01:47:11.416Z,100.00
2022-09-12T01:49:46.319Z,100.00
2022-09-12T01:52:28.915Z,100.00
2022-09-12T01:55:01.469Z,100.00
2022-09-12T01:57:41.152Z,100.00
2022-09-12T02:00:11.515Z,100.00
2022-09-12T02:03:10.249Z,100.00
2022-09-12T02:05:58.328Z,100.00
2022-09-12T02:08:47.215Z,100.00
2022-09-12T02:11:14.046Z,100.00
2022-09-12T02:13:49.716Z,100.00
2022-09-12T02:16:34.289Z,100.00
2022-09-12T02:19:08.720Z,100.00
2022-09-12T02:21:38.279Z,100.00
2022-09-12T02:24:08.222Z,100.00
2022-09-12T02:26:41.478Z,100.00
2022-09-12T02:29:08.241Z,100.00
2022-09-12T02:31:49.443Z,100.00
2022-09-12T02:34:34.745Z,100.00
2022-09-12T02:37:32.464Z,100.00
2022-09-12T02:40:00.211Z,100.00
2022-09-12T02:42:27.660Z,100.00
2022-09-12T02:44:55.394Z,100.00
2022-09-12T02:47:30.086Z,100.00
2022-09-12T02:49:57.006Z,100.00
2022-09-12T02:52:23.996Z,100.00
2022-09-12T02:54:51.585Z,100.00
2022-09-12T02:57:22.867Z,100.00
2022-09-12T02:59:53.432Z,100.00
2022-09-12T03:02:34.978Z,100.00
2022-09-12T03:05:25.504Z,100.00
2022-09-12T03:08:07.131Z,100.00
2022-09-12T03:11:09.161Z,100.00
2022-09-12T03:13:58.254Z,100.00
2022-09-12T03:16:46.605Z,100.00
2022-09-12T03:19:25.251Z,100.00
2022-09-12T03:22:09.071Z,100.00
2022-09-12T03:24:44.847Z,100.00
2022-09-12T03:27:26.185Z,100.00
2022-09-12T03:29:53.826Z,100.00
2022-09-12T03:32:20.318Z,100.00
2022-09-12T03:34:46.810Z,100.00
2022-09-12T03:37:13.635Z,100.00
2022-09-12T03:39:40.342Z,100.00
2022-09-12T03:42:06.973Z,100.00
2022-09-12T03:44:33.410Z,100.00
2022-09-12T03:47:00.092Z,100.00
2022-09-12T03:49:26.667Z,100.00
2022-09-12T03:51:53.046Z,100.00
2022-09-12T03:54:19.530Z,100.00
2022-09-12T03:56:46.017Z,100.00
2022-09-12T03:59:12.544Z,100.00
2022-09-12T04:01:39.045Z,100.00
2022-09-12T04:04:05.617Z,100.00
2022-09-12T04:06:32.195Z,100.00
2022-09-12T04:08:58.732Z,100.00
2022-09-12T04:11:25.320Z,100.00
2022-09-12T04:13:52.053Z,100.00
2022-09-12T04:16:19.149Z,100.00
2022-09-12T04:18:46.512Z,100.00
2022-09-12T04:21:16.712Z,100.00
2022-09-12T04:23:43.821Z,100.00
2022-09-12T04:26:10.815Z,100.00
2022-09-12T04:28:38.605Z,100.00
2022-09-12T04:31:07.853Z,100.00
2022-09-12T04:33:35.514Z,100.00
2022-09-12T04:36:17.305Z,100.00
2022-09-12T04:38:45.933Z,100.00
2022-09-12T04:41:21.574Z,100.00
2022-09-12T04:43:53.006Z,100.00
2022-09-12T04:46:20.391Z,100.00
2022-09-12T04:48:47.890Z,100.00
2022-09-12T04:51:22.696Z,100.00
2022-09-12T04:53:52.086Z,100.00
2022-09-12T04:56:19.977Z,100.00
2022-09-12T04:58:47.164Z,100.00
2022-09-12T05:01:20.329Z,100.00
2022-09-12T05:03:48.260Z,100.00
2022-09-12T05:06:23.983Z,100.00
2022-09-12T05:08:52.447Z,100.00
2022-09-12T05:14:33.053Z,100.00
2022-09-12T05:17:01.439Z,100.00
2022-09-12T05:19:30.209Z,100.00
2022-09-12T05:21:56.995Z,100.00
2022-09-12T05:24:24.649Z,100.00
2022-09-12T05:26:51.624Z,100.00
2022-09-12T05:29:18.951Z,100.00
2022-09-12T05:31:45.529Z,100.00
2022-09-12T05:34:12.683Z,100.00
2022-09-12T05:36:39.203Z,100.00
2022-09-12T05:39:05.940Z,100.00
2022-09-12T05:41:33.953Z,100.00
2022-09-12T05:44:03.094Z,100.00
2022-09-12T05:46:41.653Z,100.00
2022-09-12T05:49:11.260Z,100.00
2022-09-12T05:51:41.441Z,100.00
2022-09-12T05:54:10.189Z,100.00
2022-09-12T05:56:42.717Z,100.00
2022-09-12T05:59:18.353Z,100.00
2022-09-12T06:01:45.343Z,100.00
2022-09-12T06:04:12.251Z,100.00
2022-09-12T06:06:41.952Z,100.00
2022-09-12T06:09:09.386Z,100.00
2022-09-12T06:11:40.177Z,100.00
2022-09-12T06:14:08.268Z,100.00
2022-09-12T06:16:35.798Z,99.18
2022-09-12T06:19:06.609Z,97.87
2022-09-12T06:21:35.325Z,99.96
2022-09-12T06:24:02.542Z,100.00
2022-09-12T06:26:29.849Z,99.07
2022-09-12T06:28:59.419Z,98.65
2022-09-12T06:31:29.423Z,97.24
2022-09-12T06:33:59.290Z,98.41
2022-09-12T06:36:29.687Z,97.21
2022-09-12T06:39:02.109Z,96.32
2022-09-12T06:41:31.069Z,98.04
2022-09-12T06:43:58.682Z,95.98
2022-09-12T06:46:25.608Z,93.73
2022-09-12T06:48:52.272Z,98.33
2022-09-12T06:51:20.125Z,95.52
2022-09-12T06:53:48.081Z,94.21
2022-09-12T06:56:20.500Z,93.56
2022-09-12T06:58:48.796Z,91.06
2022-09-12T07:01:20.263Z,91.98
2022-09-12T07:03:50.032Z,91.11
2022-09-12T07:06:19.203Z,94.07
2022-09-12T07:08:46.462Z,93.71
2022-09-12T07:11:27.110Z,91.51
2022-09-12T07:13:56.537Z,87.96
2022-09-12T07:16:23.664Z,88.49
2022-09-12T07:19:01.046Z,87.06
2022-09-12T07:21:28.332Z,90.47
2022-09-12T07:24:00.618Z,87.31
2022-09-12T07:26:28.898Z,86.72
2022-09-12T07:29:12.756Z,88.65
2022-09-12T07:31:44.686Z,88.40
2022-09-12T07:34:11.360Z,84.99
2022-09-12T07:36:37.939Z,88.97
2022-09-12T07:39:04.369Z,87.96
2022-09-12T07:41:33.707Z,85.85
2022-09-12T07:44:01.875Z,87.50
2022-09-12T07:46:30.234Z,85.86
2022-09-12T07:48:59.256Z,86.09
2022-09-12T07:51:27.645Z,84.95
2022-09-12T07:53:54.851Z,83.85
2022-09-12T07:56:22.577Z,84.70
2022-09-12T07:58:50.555Z,83.58
2022-09-12T08:01:21.309Z,83.09
2022-09-12T08:03:49.707Z,81.77
2022-09-12T08:06:21.573Z,81.72
2022-09-12T08:08:48.833Z,80.79
2022-09-12T08:11:18.251Z,82.44
2022-09-12T08:13:46.200Z,82.04
2022-09-12T08:16:15.435Z,81.96
2022-09-12T08:18:42.245Z,82.55
2022-09-12T08:21:14.090Z,81.50
2022-09-12T08:23:41.352Z,80.66
2022-09-12T08:26:08.257Z,80.01
2022-09-12T08:28:36.003Z,80.72
2022-09-12T08:31:07.707Z,79.64
2022-09-12T08:33:35.214Z,78.70
2022-09-12T08:36:11.430Z,78.80
2022-09-12T08:38:39.977Z,77.25
2022-09-12T08:41:18.696Z,77.58
2022-09-12T08:44:08.152Z,76.51
2022-09-12T08:46:52.224Z,74.48
2022-09-12T08:49:29.137Z,75.90
2022-09-12T08:51:58.194Z,72.30
2022-09-12T08:54:28.324Z,73.47
2022-09-12T08:57:01.451Z,71.99
2022-09-12T08:59:37.113Z,70.18
2022-09-12T09:02:16.555Z,71.21
2022-09-12T09:04:51.660Z,69.37
2022-09-12T09:07:46.843Z,67.95
2022-09-12T09:10:32.204Z,67.18
2022-09-12T09:13:47.173Z,66.15
2022-09-12T09:16:26.555Z,67.23
2022-09-12T09:18:55.948Z,67.97
2022-09-12T09:21:30.243Z,67.82
2022-09-12T09:24:04.252Z,67.23
2022-09-12T09:26:41.911Z,66.22
2022-09-12T09:29:17.821Z,66.61
2022-09-12T09:31:52.243Z,67.32
2022-09-12T09:34:22.195Z,68.63
2022-09-12T09:37:09.842Z,66.87
2022-09-12T09:39:55.152Z,67.64
2022-09-12T09:42:54.050Z,64.29
2022-09-12T09:45:24.334Z,63.85
2022-09-12T09:47:57.125Z,62.37
2022-09-12T09:50:24.355Z,61.79
2022-09-12T09:52:52.436Z,59.85
2022-09-12T09:55:25.438Z,60.21
2022-09-12T09:57:53.246Z,58.31
2022-09-12T10:00:37.155Z,60.77
2022-09-12T10:03:13.413Z,59.76
2022-09-12T10:06:00.436Z,61.07
2022-09-12T10:08:30.103Z,60.70
2022-09-12T10:11:04.835Z,58.45
2022-09-12T10:13:36.160Z,57.86
2022-09-12T10:16:18.829Z,58.36
2022-09-12T10:18:45.770Z,57.97
2022-09-12T10:21:19.399Z,56.93
2022-09-12T10:23:48.052Z,56.84
2022-09-12T10:26:18.643Z,57.92
2022-09-12T10:28:50.489Z,57.66
2022-09-12T10:31:29.454Z,58.34
2022-09-12T10:33:59.574Z,58.15
2022-09-12T10:36:35.669Z,57.20
2022-09-12T10:39:02.883Z,57.73
2022-09-12T10:41:39.434Z,57.48
2022-09-12T10:44:09.489Z,56.13
2022-09-12T10:46:35.961Z,56.83
2022-09-12T10:49:21.703Z,56.26
2022-09-12T10:51:49.077Z,56.36
2022-09-12T10:54:18.456Z,55.02
2022-09-12T10:57:06.050Z,54.63
2022-09-12T10:59:41.522Z,55.47
2022-09-12T11:02:34.202Z,53.77
2022-09-12T11:05:11.319Z,53.61
2022-09-12T11:07:43.863Z,53.53
2022-09-12T11:10:42.562Z,54.39
2022-09-12T11:13:22.722Z,53.99
2022-09-12T11:16:14.235Z,52.67
2022-09-12T11:19:17.379Z,51.89
2022-09-12T11:21:46.462Z,53.56
2022-09-12T11:24:16.441Z,52.72
2022-09-12T11:27:20.959Z,53.63
2022-09-12T11:30:11.030Z,53.85
2022-09-12T11:32:50.751Z,53.21
2022-09-12T11:35:26.085Z,53.41
2022-09-12T11:38:10.823Z,52.53
2022-09-12T11:40:56.181Z,50.21
2022-09-12T11:43:28.819Z,52.37
2022-09-12T11:45:59.973Z,51.64
2022-09-12T11:48:37.714Z,52.77
2022-09-12T11:51:15.586Z,51.99
2022-09-12T11:53:44.611Z,52.69
2022-09-12T11:56:17.867Z,51.49
2022-09-12T11:59:00.682Z,52.08
2022-09-12T12:01:44.980Z,51.37
2022-09-12T12:04:20.427Z,50.81
2022-09-12T12:06:56.187Z,50.17
2022-09-12T12:09:23.446Z,49.61
2022-09-12T12:11:57.519Z,50.40
2022-09-12T12:14:42.538Z,49.90
2022-09-12T12:17:24.174Z,50.77
2022-09-12T12:20:05.773Z,51.67
2022-09-12T12:22:34.129Z,48.15
2022-09-12T12:25:22.933Z,50.02
2022-09-12T12:27:53.619Z,50.25
2022-09-12T12:30:28.939Z,50.39
2022-09-12T12:33:10.605Z,50.85
2022-09-12T12:35:57.254Z,50.73
2022-09-12T12:38:35.352Z,50.09
2022-09-12T12:41:16.776Z,48.09
2022-09-12T12:43:44.830Z,49.28
2022-09-12T12:46:22.649Z,48.95
2022-09-12T12:49:21.620Z,48.24
2022-09-12T12:51:53.798Z,48.43
2022-09-12T12:54:33.059Z,47.82
2022-09-12T12:57:44.663Z,47.30
2022-09-12T13:00:20.493Z,48.63
2022-09-12T13:02:58.273Z,49.34
2022-09-12T13:05:27.472Z,50.04
2022-09-12T13:08:02.825Z,48.70
2022-09-12T13:10:30.911Z,48.62
2022-09-12T13:13:05.205Z,50.60
2022-09-12T13:15:37.702Z,50.12
2022-09-12T13:18:07.363Z,49.32
2022-09-12T13:20:44.980Z,50.08
2022-09-12T13:23:26.714Z,47.92
2022-09-12T13:25:58.446Z,49.05
2022-09-12T13:28:26.686Z,49.10
2022-09-12T13:30:56.201Z,48.75
2022-09-12T13:33:37.209Z,49.24
2022-09-12T13:36:34.335Z,47.57
2022-09-12T13:39:26.599Z,47.82
2022-09-12T13:42:07.967Z,49.27
2022-09-12T13:44:44.501Z,48.29
2022-09-12T13:47:19.977Z,48.35
2022-09-12T13:49:47.055Z,48.00
2022-09-12T13:52:24.440Z,48.12
2022-09-12T13:54:55.147Z,48.25
2022-09-12T13:57:38.331Z,47.16
2022-09-12T14:00:07.761Z,48.40
2022-09-12T14:02:36.498Z,48.89
2022-09-12T14:05:13.959Z,48.38
2022-09-12T14:07:56.237Z,47.25
2022-09-12T14:10:44.059Z,47.08
2022-09-12T14:13:17.452Z,45.96
2022-09-12T14:15:47.007Z,47.19
2022-09-12T14:18:28.523Z,47.59
2022-09-12T14:20:58.316Z,46.77
2022-09-12T14:23:29.191Z,46.17
2022-09-12T14:25:59.960Z,46.04
2022-09-12T14:28:30.304Z,44.80
2022-09-12T14:31:21.291Z,44.71
2022-09-12T14:33:49.398Z,47.77
2022-09-12T14:36:33.961Z,47.61
2022-09-12T14:39:04.705Z,48.19
2022-09-12T14:41:38.126Z,45.87
2022-09-12T14:44:08.696Z,49.82
2022-09-12T14:46:38.781Z,48.18
2022-09-12T14:49:14.964Z,47.67
2022-09-12T14:51:52.468Z,48.09
2022-09-12T14:54:28.065Z,48.92
2022-09-12T14:57:00.826Z,50.06
2022-09-12T14:59:37.630Z,53.16
2022-09-12T15:02:13.511Z,52.99
2022-09-12T15:04:42.070Z,51.66
2022-09-12T15:07:42.655Z,51.36
2022-09-12T15:10:35.004Z,49.72
2022-09-12T15:13:14.467Z,51.14
2022-09-12T15:15:43.876Z,51.36
2022-09-12T15:18:10.973Z,52.88
2022-09-12T15:20:39.795Z,52.43
2022-09-12T15:23:11.998Z,52.62
2022-09-12T15:25:38.432Z,53.15
2022-09-12T15:28:21.228Z,53.26
2022-09-12T15:30:50.502Z,56.06
2022-09-12T15:33:22.837Z,55.50
2022-09-12T15:35:50.236Z,54.84
2022-09-12T15:38:17.019Z,53.83
2022-09-12T15:40:43.469Z,55.20
2022-09-12T15:43:12.621Z,54.82
2022-09-12T15:45:39.383Z,53.94
2022-09-12T15:48:06.213Z,56.87
2022-09-12T15:50:32.783Z,58.12
2022-09-12T15:52:59.302Z,58.87
2022-09-12T15:55:28.335Z,59.12
2022-09-12T15:57:55.067Z,58.17
2022-09-12T16:00:22.698Z,58.08
2022-09-12T16:02:51.899Z,59.17
2022-09-12T16:05:22.299Z,58.91
2022-09-12T16:07:52.427Z,59.57
2022-09-12T16:10:24.938Z,59.94
2022-09-12T16:12:52.109Z,61.02
2022-09-12T16:15:21.694Z,61.88
2022-09-12T16:17:48.195Z,62.68
2022-09-12T16:20:15.047Z,62.12
2022-09-12T16:22:42.431Z,64.02
2022-09-12T16:25:09.416Z,64.13
2022-09-12T16:27:36.946Z,63.42
2022-09-12T16:30:05.505Z,65.39
2022-09-12T16:32:32.043Z,65.62
2022-09-12T16:34:58.662Z,65.50
2022-09-12T16:37:25.099Z,66.01
2022-09-12T16:39:52.410Z,66.86
2022-09-12T16:42:19.474Z,68.08
2022-09-12T16:44:47.039Z,68.99
2022-09-12T16:47:14.523Z,68.61
2022-09-12T16:49:41.068Z,69.43
2022-09-12T16:52:08.116Z,70.24
2022-09-12T16:54:34.656Z,69.87
2022-09-12T16:57:01.065Z,69.23
2022-09-12T16:59:27.557Z,69.83
2022-09-12T17:01:54.045Z,70.09
2022-09-12T17:04:23.421Z,70.65
2022-09-12T17:06:50.387Z,70.78
2022-09-12T17:09:18.560Z,70.65
2022-09-12T17:11:47.537Z,70.78
2022-09-12T17:14:14.267Z,70.76
2022-09-12T17:16:46.949Z,70.79
2022-09-12T17:19:26.532Z,72.06
2022-09-12T17:21:52.944Z,72.32
2022-09-12T17:24:19.858Z,72.90
2022-09-12T17:26:46.703Z,72.99
2022-09-12T17:29:16.871Z,73.43
2022-09-12T17:31:44.205Z,74.04
2022-09-12T17:34:14.278Z,74.40
2022-09-12T17:36:44.207Z,75.03
2022-09-12T17:39:11.658Z,75.21
2022-09-12T17:41:38.473Z,75.94
2022-09-12T17:44:05.888Z,76.23
2022-09-12T17:46:35.409Z,77.39
2022-09-12T17:49:04.496Z,77.76
2022-09-12T17:51:31.371Z,77.84
2022-09-12T17:54:05.475Z,78.57
2022-09-12T17:56:33.506Z,78.94
2022-09-12T17:59:00.302Z,79.41
2022-09-12T18:01:47.723Z,80.10
2022-09-12T18:04:15.455Z,80.94
2022-09-12T18:06:47.785Z,80.86
2022-09-12T18:09:19.544Z,80.99
2022-09-12T18:11:46.755Z,81.88
2022-09-12T18:14:14.498Z,82.43
2022-09-12T18:16:41.969Z,82.12
2022-09-12T18:19:08.721Z,82.79
2022-09-12T18:21:35.290Z,82.71
2022-09-12T18:24:03.110Z,83.73
2022-09-12T18:26:30.622Z,84.69
2022-09-12T18:28:57.618Z,84.68
2022-09-12T18:31:26.835Z,85.58
2022-09-12T18:33:53.380Z,85.96
2022-09-12T18:36:20.313Z,86.31
2022-09-12T18:38:47.968Z,86.88
2022-09-12T18:41:19.959Z,86.57
2022-09-12T18:43:47.358Z,87.44
2022-09-12T18:46:19.134Z,88.13
2022-09-12T18:48:46.718Z,88.19
2022-09-12T18:51:22.375Z,88.43
2022-09-12T18:54:01.079Z,89.13
2022-09-12T18:56:33.241Z,88.99
2022-09-12T18:59:02.766Z,89.77
2022-09-12T19:01:31.697Z,89.05
2022-09-12T19:03:59.109Z,89.69
2022-09-12T19:06:28.338Z,89.45
2022-09-12T19:08:56.172Z,90.33
2022-09-12T19:11:23.634Z,90.03
2022-09-12T19:13:51.879Z,90.77
2022-09-12T19:16:21.789Z,91.55
2022-09-12T19:18:49.671Z,91.30
2022-09-12T19:21:24.680Z,91.65
2022-09-12T19:23:53.529Z,92.18
2022-09-12T19:26:20.723Z,92.91
2022-09-12T19:28:47.446Z,93.29
2022-09-12T19:31:16.608Z,92.90
2022-09-12T19:33:43.104Z,93.29
2022-09-12T19:36:33.747Z,94.12
2022-09-12T19:39:00.059Z,93.72
2022-09-12T19:41:27.134Z,94.32
2022-09-12T19:43:54.712Z,93.68
2022-09-12T19:46:23.393Z,94.02
2022-09-12T19:48:50.524Z,94.93
2022-09-12T19:51:17.735Z,95.43
2022-09-12T19:53:44.748Z,94.08
2022-09-12T19:56:13.652Z,95.19
2022-09-12T19:58:43.320Z,94.98
2022-09-12T20:01:15.663Z,95.14
2022-09-12T20:03:43.162Z,95.70
2022-09-12T20:06:13.061Z,95.85
2022-09-12T20:08:40.365Z,95.21
2022-09-12T20:11:07.978Z,95.60
2022-09-12T20:13:35.363Z,95.81
2022-09-12T20:16:10.224Z,97.26
2022-09-12T20:18:37.903Z,96.98
2022-09-12T20:21:25.384Z,95.95
2022-09-12T20:23:52.298Z,96.98
2022-09-12T20:26:20.238Z,96.58
2022-09-12T20:28:46.944Z,97.54
2022-09-12T20:31:15.723Z,97.80
2022-09-12T20:33:43.049Z,97.88
2022-09-12T20:36:15.203Z,98.10
2022-09-12T20:38:46.473Z,97.56
2022-09-12T20:41:13.026Z,97.34
2022-09-12T20:43:40.095Z,97.01
2022-09-12T20:46:09.718Z,97.28
2022-09-12T20:48:37.359Z,97.64
2022-09-12T20:51:04.655Z,97.26
2022-09-12T20:53:34.836Z,97.07
2022-09-12T20:56:02.749Z,97.47
2022-09-12T20:58:29.197Z,97.71
2022-09-12T21:00:55.712Z,97.78
2022-09-12T21:03:22.911Z,98.01
2022-09-12T21:05:49.402Z,98.51
2022-09-12T21:08:15.926Z,98.31
2022-09-12T21:10:45.238Z,97.91
2022-09-12T21:13:13.200Z,98.00
2022-09-12T21:15:41.074Z,97.83
2022-09-12T21:18:08.127Z,98.65
2022-09-12T21:20:35.063Z,99.37
2022-09-12T21:23:01.714Z,99.20
2022-09-12T21:25:29.069Z,98.55
2022-09-12T21:27:55.535Z,99.05
2022-09-12T21:30:22.579Z,99.73
2022-09-12T21:32:49.092Z,99.54
2022-09-12T21:35:15.742Z,100.00
2022-09-12T21:37:42.121Z,99.57
2022-09-12T21:40:08.963Z,99.36
2022-09-12T21:42:35.522Z,99.24
2022-09-12T21:45:02.211Z,99.70
2022-09-12T21:47:28.546Z,99.71
2022-09-12T21:49:55.344Z,100.00
2022-09-12T21:52:22.009Z,99.73
2022-09-12T21:54:48.397Z,99.01
2022-09-12T21:57:14.889Z,100.00
2022-09-12T22:02:33.258Z,99.41
2022-09-12T22:04:59.691Z,99.26
2022-09-12T22:07:26.250Z,99.49
2022-09-12T22:09:52.832Z,99.49
2022-09-12T22:12:19.411Z,100.00
2022-09-12T22:14:46.760Z,99.57
2022-09-12T22:17:13.913Z,99.04
2022-09-12T22:19:40.827Z,99.11
2022-09-12T22:22:26.480Z,99.38
2022-09-12T22:24:53.508Z,98.72
2022-09-12T22:27:20.018Z,98.77
2022-09-12T22:29:49.588Z,98.43
2022-09-12T22:32:17.284Z,98.16
2022-09-12T22:34:43.758Z,98.84
2022-09-12T22:37:13.140Z,98.49
2022-09-12T22:39:40.262Z,99.56
2022-09-12T22:42:07.822Z,99.47
2022-09-12T22:44:34.296Z,99.82
2022-09-12T22:47:00.905Z,99.46
2022-09-12T22:49:27.325Z,99.82
2022-09-12T22:51:53.856Z,99.80
2022-09-12T22:54:20.381Z,99.68
2022-09-12T22:56:46.912Z,99.27
2022-09-12T22:59:13.491Z,98.69
2022-09-12T23:01:39.999Z,98.81
2022-09-12T23:04:06.521Z,98.86
2022-09-12T23:06:33.030Z,99.11
2022-09-12T23:08:59.536Z,99.78
2022-09-12T23:11:27.425Z,100.00
2022-09-12T23:13:53.950Z,99.99
2022-09-12T23:16:23.569Z,99.70
2022-09-12T23:18:50.999Z,100.00
2022-09-12T23:21:19.835Z,100.00
2022-09-12T23:23:46.652Z,100.00
2022-09-12T23:26:18.019Z,100.00
2022-09-12T23:28:53.035Z,99.92
2022-09-12T23:31:20.645Z,99.77
2022-09-12T23:33:47.719Z,100.00
2022-09-12T23:36:14.473Z,99.92
2022-09-12T23:38:43.627Z,99.04
2022-09-12T23:41:11.288Z,99.84
2022-09-12T23:43:38.759Z,99.93
2022-09-12T23:46:06.692Z,100.00
2022-09-12T23:48:33.600Z,100.00
2022-09-12T23:51:00.582Z,100.00
2022-09-12T23:53:27.773Z,100.00
2022-09-12T23:55:54.311Z,100.00
2022-09-12T23:58:22.564Z,100.00
